Time,TemperatureF,DewpointF,PressureIn,WindDirection,WindDirectionDegrees,WindSpeedMPH,WindSpeedGustMPH,Humidity,HourlyPrecipIn,Conditions,Clouds,dailyrainin,SoftwareType,DateUTC
2013-06-15 00:00:00,55.2,43.7,30.05,NW,315,2.0,2.2,65,0.00,,,0.00,WUHU21623XXSP,2013-06-15 04:00:00,
2013-06-15 00:01:00,55.2,43.7,30.05,West,270,0.0,2.2,65,0.00,,,0.00,WUHU21623XXSP,2013-06-15 04:01:00,
2013-06-15 00:06:00,55.2,43.7,30.05,West,270,0.0,2.2,65,0.00,,,0.00,WUHU21623XXSP,2013-06-15 04:06:00,
2013-06-15 00:11:00,55.0,43.5,30.05,West,270,0.0,0.0,65,0.00,,,0.00,WUHU21623XXSP,2013-06-15 04:11:00,
2013-06-15 00:16:00,54.9,43.4,30.05,NW,315,1.1,1.1,65,0.00,,,0.00,WUHU21623XXSP,2013-06-15 04:16:00,
2013-06-15 00:21:00,54.7,43.5,30.05,NW,315,2.0,2.0,66,0.00,,,0.00,WUHU21623XXSP,2013-06-15 04:21:00,
2013-06-15 00:27:00,54.7,43.5,30.05,NNW,337,0.0,2.0,66,0.00,,,0.00,WUHU21623XXSP,2013-06-15 04:27:00,
2013-06-15 00:33:00,54.7,43.8,30.06,NW,315,4.0,4.0,66,0.00,,,0.00,WUHU21623XXSP,2013-06-15 04:33:00,
2013-06-15 00:38:00,54.7,43.8,30.06,NW,315,0.0,4.0,66,0.00,,,0.00,WUHU21623XXSP,2013-06-15 04:38:00,
2013-06-15 00:44:00,54.3,43.1,30.06,NW,315,0.0,0.0,66,0.00,,,0.00,WUHU21623XXSP,2013-06-15 04:44:00,
2013-06-15 00:49:00,54.1,43.0,30.06,WNW,292,0.0,0.0,66,0.00,,,0.00,WUHU21623XXSP,2013-06-15 04:49:00,
2013-06-15 00:54:00,53.8,43.0,30.05,West,270,0.0,0.0,66,0.00,,,0.00,WUHU21623XXSP,2013-06-15 04:54:00,
2013-06-15 00:59:00,53.8,43.0,30.05,West,270,0.0,0.0,66,0.00,,,0.00,WUHU21623XXSP,2013-06-15 04:59:00,
2013-06-15 01:05:00,53.8,43.0,30.05,West,270,0.0,0.0,66,0.00,,,0.00,WUHU21623XXSP,2013-06-15 05:05:00,
2013-06-15 01:10:00,53.4,42.9,30.06,West,270,0.0,0.0,67,0.00,,,0.00,WUHU21623XXSP,2013-06-15 05:10:00,
2013-06-15 01:15:00,53.2,42.7,30.06,West,270,0.0,0.0,67,0.00,,,0.00,WUHU21623XXSP,2013-06-15 05:15:00,
2013-06-15 01:20:00,53.2,42.7,30.06,West,270,0.0,0.0,67,0.00,,,0.00,WUHU21623XXSP,2013-06-15 05:20:00,
2013-06-15 01:25:00,53.2,43.0,30.05,West,270,0.0,0.0,68,0.00,,,0.00,WUHU21623XXSP,2013-06-15 05:25:00,
2013-06-15 01:31:00,53.2,43.0,30.04,West,270,0.0,0.0,68,0.00,,,0.00,WUHU21623XXSP,2013-06-15 05:31:00,
2013-06-15 01:36:00,53.1,42.9,30.05,West,270,0.0,0.0,68,0.00,,,0.00,WUHU21623XXSP,2013-06-15 05:36:00,
2013-06-15 01:41:00,52.9,42.7,30.05,West,270,0.0,0.0,68,0.00,,,0.00,WUHU21623XXSP,2013-06-15 05:41:00,
2013-06-15 01:46:00,52.7,42.9,30.05,West,270,0.0,0.0,69,0.00,,,0.00,WUHU21623XXSP,2013-06-15 05:46:00,
2013-06-15 01:51:00,52.5,42.7,30.05,West,270,0.0,0.0,69,0.00,,,0.00,WUHU21623XXSP,2013-06-15 05:51:00,
2013-06-15 01:56:00,52.5,42.7,30.05,West,270,0.0,0.0,69,0.00,,,0.00,WUHU21623XXSP,2013-06-15 05:56:00,
2013-06-15 02:01:00,52.5,42.7,30.05,West,270,0.0,0.0,69,0.00,,,0.00,WUHU21623XXSP,2013-06-15 06:01:00,
2013-06-15 02:06:00,52.7,42.9,30.05,West,270,0.0,0.0,69,0.00,,,0.00,WUHU21623XXSP,2013-06-15 06:06:00,
2013-06-15 02:12:00,52.7,42.9,30.04,West,270,0.0,0.0,69,0.00,,,0.00,WUHU21623XXSP,2013-06-15 06:12:00,
2013-06-15 02:17:00,52.7,43.2,30.04,SSW,202,0.0,0.0,70,0.00,,,0.00,WUHU21623XXSP,2013-06-15 06:17:00,
2013-06-15 02:23:00,52.7,43.2,30.05,SW,225,0.0,0.0,70,0.00,,,0.00,WUHU21623XXSP,2013-06-15 06:23:00,
2013-06-15 02:28:00,52.7,43.2,30.04,SW,225,0.0,0.0,70,0.00,,,0.00,WUHU21623XXSP,2013-06-15 06:28:00,
2013-06-15 02:33:00,52.7,43.2,30.05,SW,225,0.0,0.0,70,0.00,,,0.00,WUHU21623XXSP,2013-06-15 06:33:00,
2013-06-15 02:38:00,52.5,43.0,30.05,SW,225,0.0,0.0,70,0.00,,,0.00,WUHU21623XXSP,2013-06-15 06:38:00,
2013-06-15 02:44:00,52.5,43.0,30.05,SW,225,0.0,0.0,70,0.00,,,0.00,WUHU21623XXSP,2013-06-15 06:44:00,
2013-06-15 02:50:00,52.3,43.1,30.04,SW,225,0.0,0.0,70,0.00,,,0.00,WUHU21623XXSP,2013-06-15 06:50:00,
2013-06-15 02:56:00,52.3,42.8,30.04,SW,225,0.0,0.0,70,0.00,,,0.00,WUHU21623XXSP,2013-06-15 06:56:00,
2013-06-15 03:02:00,52.3,43.1,30.04,SW,225,0.0,0.0,70,0.00,,,0.00,WUHU21623XXSP,2013-06-15 07:02:00,
2013-06-15 03:07:00,52.3,43.1,30.04,SW,225,0.0,0.0,70,0.00,,,0.00,WUHU21623XXSP,2013-06-15 07:07:00,
2013-06-15 03:12:00,52.3,43.1,30.04,SW,225,0.0,0.0,70,0.00,,,0.00,WUHU21623XXSP,2013-06-15 07:12:00,
2013-06-15 03:17:00,52.3,43.1,30.04,SW,225,0.0,0.0,70,0.00,,,0.00,WUHU21623XXSP,2013-06-15 07:17:00,
2013-06-15 03:22:00,52.3,43.1,30.04,SW,225,0.0,0.0,70,0.00,,,0.00,WUHU21623XXSP,2013-06-15 07:22:00,
2013-06-15 03:27:00,52.3,43.1,30.04,SW,225,0.0,0.0,70,0.00,,,0.00,WUHU21623XXSP,2013-06-15 07:27:00,
2013-06-15 03:32:00,52.3,43.1,30.03,SW,225,0.0,0.0,70,0.00,,,0.00,WUHU21623XXSP,2013-06-15 07:32:00,
2013-06-15 03:37:00,52.3,43.1,30.03,SW,225,0.0,0.0,70,0.00,,,0.00,WUHU21623XXSP,2013-06-15 07:37:00,
2013-06-15 03:42:00,52.3,43.1,30.03,SW,225,0.0,0.0,70,0.00,,,0.00,WUHU21623XXSP,2013-06-15 07:42:00,
2013-06-15 03:47:00,52.3,43.1,30.03,SW,225,0.0,0.0,70,0.00,,,0.00,WUHU21623XXSP,2013-06-15 07:47:00,
2013-06-15 03:52:00,52.2,43.3,30.03,SW,225,0.0,0.0,71,0.00,,,0.00,WUHU21623XXSP,2013-06-15 07:52:00,
2013-06-15 03:57:00,52.2,43.3,30.03,SW,225,0.0,0.0,71,0.00,,,0.00,WUHU21623XXSP,2013-06-15 07:57:00,
2013-06-15 04:02:00,52.2,43.3,30.03,SW,225,0.0,0.0,71,0.00,,,0.00,WUHU21623XXSP,2013-06-15 08:02:00,
2013-06-15 04:08:00,52.0,43.1,30.03,WSW,247,0.0,0.0,71,0.00,,,0.00,WUHU21623XXSP,2013-06-15 08:08:00,
2013-06-15 04:15:00,52.0,43.1,30.03,WSW,247,0.0,0.0,71,0.00,,,0.00,WUHU21623XXSP,2013-06-15 08:15:00,
2013-06-15 04:20:00,52.0,43.1,30.03,WSW,247,0.0,0.0,71,0.00,,,0.00,WUHU21623XXSP,2013-06-15 08:20:00,
2013-06-15 04:25:00,51.8,42.9,30.04,WSW,247,0.0,0.0,71,0.00,,,0.00,WUHU21623XXSP,2013-06-15 08:25:00,
2013-06-15 04:30:00,51.6,42.7,30.04,WSW,247,0.0,0.0,71,0.00,,,0.00,WUHU21623XXSP,2013-06-15 08:30:00,
2013-06-15 04:35:00,51.6,42.4,30.04,SW,225,0.0,0.0,70,0.00,,,0.00,WUHU21623XXSP,2013-06-15 08:35:00,
2013-06-15 04:40:00,51.6,42.4,30.04,WSW,247,0.0,0.0,70,0.00,,,0.00,WUHU21623XXSP,2013-06-15 08:40:00,
2013-06-15 04:45:00,51.8,42.9,30.05,WSW,247,0.0,4.0,71,0.00,,,0.00,WUHU21623XXSP,2013-06-15 08:45:00,
2013-06-15 04:50:00,52.0,43.1,30.05,SW,225,1.1,4.0,71,0.00,,,0.00,WUHU21623XXSP,2013-06-15 08:50:00,
2013-06-15 04:55:00,52.0,43.1,30.05,WSW,247,0.0,3.1,71,0.00,,,0.00,WUHU21623XXSP,2013-06-15 08:55:00,
2013-06-15 05:00:00,52.0,43.1,30.05,WSW,247,0.0,3.1,71,0.00,,,0.00,WUHU21623XXSP,2013-06-15 09:00:00,
2013-06-15 05:05:00,52.0,43.1,30.06,WSW,247,0.0,0.0,71,0.00,,,0.00,WUHU21623XXSP,2013-06-15 09:05:00,
2013-06-15 05:10:00,52.2,43.3,30.06,SW,225,1.3,1.3,71,0.00,,,0.00,WUHU21623XXSP,2013-06-15 09:10:00,
2013-06-15 05:15:00,52.0,43.1,30.06,WSW,247,0.0,1.3,71,0.00,,,0.00,WUHU21623XXSP,2013-06-15 09:15:00,
2013-06-15 05:20:00,52.0,43.1,30.07,WSW,247,1.8,6.7,71,0.00,,,0.00,WUHU21623XXSP,2013-06-15 09:20:00,
2013-06-15 05:25:00,52.0,43.1,30.07,WSW,247,2.2,6.7,71,0.00,,,0.00,WUHU21623XXSP,2013-06-15 09:25:00,
2013-06-15 05:30:00,52.0,43.1,30.07,WSW,247,0.0,4.5,71,0.00,,,0.00,WUHU21623XXSP,2013-06-15 09:30:00,
2013-06-15 05:35:00,52.0,43.1,30.07,WSW,247,0.0,2.0,71,0.00,,,0.00,WUHU21623XXSP,2013-06-15 09:35:00,
2013-06-15 05:40:00,52.0,43.1,30.07,West,270,0.0,0.0,71,0.00,,,0.00,WUHU21623XXSP,2013-06-15 09:40:00,
2013-06-15 05:45:00,51.8,42.9,30.07,WSW,247,1.8,1.8,71,0.00,,,0.00,WUHU21623XXSP,2013-06-15 09:45:00,
2013-06-15 05:50:00,51.8,42.9,30.07,WSW,247,0.0,1.8,71,0.00,,,0.00,WUHU21623XXSP,2013-06-15 09:50:00,
2013-06-15 05:55:00,52.0,43.1,30.07,SW,215,2.0,2.2,71,0.00,,,0.00,WUHU21623XXSP,2013-06-15 09:55:00,
2013-06-15 06:00:00,52.0,43.1,30.07,WSW,247,0.0,4.9,71,0.00,,,0.00,WUHU21623XXSP,2013-06-15 10:00:00,
2013-06-15 06:05:00,52.2,43.3,30.08,SW,225,2.2,4.9,71,0.00,,,0.00,WUHU21623XXSP,2013-06-15 10:05:00,
2013-06-15 06:10:00,52.3,43.4,30.08,WSW,247,1.1,4.9,71,0.00,,,0.00,WUHU21623XXSP,2013-06-15 10:10:00,
2013-06-15 06:16:00,52.5,43.5,30.08,WSW,247,0.0,1.8,71,0.00,,,0.00,WUHU21623XXSP,2013-06-15 10:16:00,
2013-06-15 06:21:00,52.5,43.5,30.08,SW,225,4.0,5.4,71,0.00,,,0.00,WUHU21623XXSP,2013-06-15 10:21:00,
2013-06-15 06:26:00,52.7,43.7,30.08,WSW,247,0.0,5.4,71,0.00,,,0.00,WUHU21623XXSP,2013-06-15 10:26:00,
2013-06-15 06:31:00,52.9,43.9,30.08,WSW,247,0.0,0.0,71,0.00,,,0.00,WUHU21623XXSP,2013-06-15 10:31:00,
2013-06-15 06:36:00,52.7,43.7,30.09,SW,225,0.0,0.0,71,0.00,,,0.00,WUHU21623XXSP,2013-06-15 10:36:00,
2013-06-15 06:41:00,52.9,43.9,30.09,WSW,247,0.0,0.0,71,0.00,,,0.00,WUHU21623XXSP,2013-06-15 10:41:00,
2013-06-15 06:46:00,52.9,43.9,30.09,WSW,247,0.0,1.3,71,0.00,,,0.00,WUHU21623XXSP,2013-06-15 10:46:00,
2013-06-15 06:51:00,52.9,43.9,30.09,WSW,247,0.0,1.3,71,0.00,,,0.00,WUHU21623XXSP,2013-06-15 10:51:00,
2013-06-15 06:56:00,52.9,43.9,30.09,WSW,248,3.0,5.8,71,0.00,,,0.00,WUHU21623XXSP,2013-06-15 10:56:00,
2013-06-15 07:01:00,52.9,44.2,30.09,SW,235,4.9,5.8,72,0.00,,,0.00,WUHU21623XXSP,2013-06-15 11:01:00,
2013-06-15 07:06:00,53.1,44.4,30.09,SW,225,2.7,5.6,72,0.00,,,0.00,WUHU21623XXSP,2013-06-15 11:06:00,
2013-06-15 07:11:00,52.9,44.2,30.09,West,270,0.9,6.9,72,0.00,,,0.00,WUHU21623XXSP,2013-06-15 11:11:00,
2013-06-15 07:16:00,53.2,44.5,30.09,SW,225,3.6,6.9,72,0.00,,,0.00,WUHU21623XXSP,2013-06-15 11:16:00,
2013-06-15 07:21:00,53.2,44.5,30.09,WSW,247,0.9,3.6,72,0.00,,,0.00,WUHU21623XXSP,2013-06-15 11:21:00,
2013-06-15 07:26:00,53.2,44.5,30.09,WSW,247,0.0,0.9,72,0.00,,,0.00,WUHU21623XXSP,2013-06-15 11:26:00,
2013-06-15 07:31:00,53.4,44.7,30.09,WSW,247,0.0,0.0,72,0.00,,,0.00,WUHU21623XXSP,2013-06-15 11:31:00,
2013-06-15 07:36:00,53.4,44.7,30.09,WSW,247,0.0,0.0,72,0.00,,,0.00,WUHU21623XXSP,2013-06-15 11:36:00,
2013-06-15 07:41:00,53.4,44.7,30.10,SW,234,1.4,6.7,72,0.00,,,0.00,WUHU21623XXSP,2013-06-15 11:41:00,
2013-06-15 07:46:00,53.8,45.1,30.10,SW,225,3.3,6.7,72,0.00,,,0.00,WUHU21623XXSP,2013-06-15 11:46:00,
2013-06-15 07:51:00,53.8,45.1,30.10,West,270,1.3,3.8,72,0.00,,,0.00,WUHU21623XXSP,2013-06-15 11:51:00,
2013-06-15 07:56:00,53.8,45.1,30.10,West,261,2.0,3.8,72,0.00,,,0.00,WUHU21623XXSP,2013-06-15 11:56:00,
2013-06-15 08:01:00,53.8,45.1,30.10,SW,225,0.0,2.5,72,0.00,,,0.00,WUHU21623XXSP,2013-06-15 12:01:00,
2013-06-15 08:06:00,54.0,45.3,30.10,SW,225,2.9,2.9,72,0.00,,,0.00,WUHU21623XXSP,2013-06-15 12:06:00,
2013-06-15 08:11:00,54.1,45.4,30.11,WSW,237,5.6,6.0,72,0.00,,,0.00,WUHU21623XXSP,2013-06-15 12:11:00,
2013-06-15 08:16:00,54.1,45.4,30.11,WSW,247,5.4,6.0,72,0.00,,,0.00,WUHU21623XXSP,2013-06-15 12:16:00,
2013-06-15 08:21:00,54.3,45.6,30.11,WSW,247,2.9,5.4,72,0.00,,,0.00,WUHU21623XXSP,2013-06-15 12:21:00,
2013-06-15 08:28:00,54.5,45.8,30.11,SW,225,5.1,5.4,72,0.00,,,0.00,WUHU21623XXSP,2013-06-15 12:28:00,
2013-06-15 08:33:00,54.7,46.0,30.11,SSW,202,5.1,6.9,72,0.00,,,0.00,WUHU21623XXSP,2013-06-15 12:33:00,
2013-06-15 08:38:00,54.9,46.2,30.11,West,270,0.0,6.9,72,0.00,,,0.00,WUHU21623XXSP,2013-06-15 12:38:00,
2013-06-15 08:43:00,55.0,46.2,30.12,WSW,247,6.0,6.0,72,0.00,,,0.00,WUHU21623XXSP,2013-06-15 12:43:00,
2013-06-15 08:50:00,55.2,46.4,30.12,WSW,247,0.0,6.7,72,0.00,,,0.00,WUHU21623XXSP,2013-06-15 12:50:00,
2013-06-15 08:56:00,55.4,46.6,30.12,SW,229,4.8,8.3,72,0.00,,,0.00,WUHU21623XXSP,2013-06-15 12:56:00,
2013-06-15 09:01:00,55.8,47.0,30.12,WSW,247,4.5,8.3,72,0.00,,,0.00,WUHU21623XXSP,2013-06-15 13:01:00,
2013-06-15 09:07:00,55.9,47.1,30.12,WSW,247,6.0,8.5,72,0.00,,,0.00,WUHU21623XXSP,2013-06-15 13:07:00,
2013-06-15 09:12:00,55.9,46.8,30.13,SW,234,4.6,6.9,71,0.00,,,0.00,WUHU21623XXSP,2013-06-15 13:12:00,
2013-06-15 09:17:00,56.1,47.0,30.12,WSW,251,4.4,7.6,71,0.00,,,0.00,WUHU21623XXSP,2013-06-15 13:17:00,
2013-06-15 09:23:00,56.5,47.1,30.12,WSW,256,4.4,8.9,70,0.00,,,0.00,WUHU21623XXSP,2013-06-15 13:23:00,
2013-06-15 09:28:00,56.8,47.4,30.13,West,269,4.8,8.9,70,0.00,,,0.00,WUHU21623XXSP,2013-06-15 13:28:00,
2013-06-15 09:33:00,57.4,47.7,30.13,West,262,3.5,8.1,70,0.00,,,0.00,WUHU21623XXSP,2013-06-15 13:33:00,
2013-06-15 09:38:00,57.9,47.8,30.12,SW,225,6.0,8.1,69,0.00,,,0.00,WUHU21623XXSP,2013-06-15 13:38:00,
2013-06-15 09:44:00,58.3,47.9,30.13,West,270,4.9,7.8,68,0.00,,,0.00,WUHU21623XXSP,2013-06-15 13:44:00,
2013-06-15 09:50:00,58.6,47.9,30.12,SSW,202,7.8,9.2,67,0.00,,,0.00,WUHU21623XXSP,2013-06-15 13:50:00,
2013-06-15 09:55:00,58.8,47.1,30.13,NNW,337,6.3,11.9,65,0.00,,,0.00,WUHU21623XXSP,2013-06-15 13:55:00,
2013-06-15 10:00:00,58.8,46.5,30.12,NNW,333,5.4,11.9,63,0.00,,,0.00,WUHU21623XXSP,2013-06-15 14:00:00,
2013-06-15 10:05:00,59.2,45.8,30.12,SW,233,2.9,8.9,61,0.00,,,0.00,WUHU21623XXSP,2013-06-15 14:05:00,
2013-06-15 10:10:00,59.5,45.7,30.12,WSW,247,7.8,7.8,60,0.00,,,0.00,WUHU21623XXSP,2013-06-15 14:10:00,
2013-06-15 10:15:00,59.7,44.8,30.12,SW,225,4.7,8.3,58,0.00,,,0.00,WUHU21623XXSP,2013-06-15 14:15:00,
2013-06-15 10:20:00,60.1,44.4,30.12,WSW,250,4.0,11.4,56,0.00,,,0.00,WUHU21623XXSP,2013-06-15 14:20:00,
2013-06-15 10:25:00,60.3,43.9,30.12,SSW,202,5.1,11.4,54,0.00,,,0.00,WUHU21623XXSP,2013-06-15 14:25:00,
2013-06-15 10:30:00,60.6,43.7,30.12,NW,321,2.5,7.4,54,0.00,,,0.00,WUHU21623XXSP,2013-06-15 14:30:00,
2013-06-15 10:35:00,61.0,44.1,30.12,WSW,258,3.5,8.5,54,0.00,,,0.00,WUHU21623XXSP,2013-06-15 14:35:00,
2013-06-15 10:40:00,61.3,44.4,30.12,WSW,247,4.6,8.5,54,0.00,,,0.00,WUHU21623XXSP,2013-06-15 14:40:00,
2013-06-15 10:45:00,61.5,43.8,30.12,WNW,292,2.5,6.5,52,0.00,,,0.00,WUHU21623XXSP,2013-06-15 14:45:00,
2013-06-15 10:52:00,61.7,44.4,30.12,SSW,202,7.2,7.2,53,0.00,,,0.00,WUHU21623XXSP,2013-06-15 14:52:00,
2013-06-15 10:58:00,62.4,43.7,30.12,WSW,239,5.5,8.7,50,0.00,,,0.00,WUHU21623XXSP,2013-06-15 14:58:00,
2013-06-15 11:04:00,62.8,44.1,30.12,WSW,250,1.9,8.7,50,0.00,,,0.00,WUHU21623XXSP,2013-06-15 15:04:00,
2013-06-15 11:09:00,63.5,43.9,30.12,WSW,248,4.4,13.0,49,0.00,,,0.00,WUHU21623XXSP,2013-06-15 15:09:00,
2013-06-15 11:14:00,64.0,43.5,30.12,NW,306,3.6,13.0,47,0.00,,,0.00,WUHU21623XXSP,2013-06-15 15:14:00,
2013-06-15 11:19:00,64.4,43.8,30.11,WNW,298,3.6,10.5,47,0.00,,,0.00,WUHU21623XXSP,2013-06-15 15:19:00,
2013-06-15 11:24:00,64.8,43.7,30.11,NW,319,2.5,10.1,46,0.00,,,0.00,WUHU21623XXSP,2013-06-15 15:24:00,
2013-06-15 11:30:00,65.3,42.8,30.11,NW,317,4.0,6.7,44,0.00,,,0.00,WUHU21623XXSP,2013-06-15 15:30:00,
2013-06-15 11:36:00,65.7,43.1,30.12,WSW,247,3.6,6.9,44,0.00,,,0.00,WUHU21623XXSP,2013-06-15 15:36:00,
2013-06-15 11:41:00,66.0,43.4,30.12,NW,315,5.8,7.4,44,0.00,,,0.00,WUHU21623XXSP,2013-06-15 15:41:00,
2013-06-15 11:46:00,66.0,42.9,30.12,ENE,67,3.4,8.9,43,0.00,,,0.00,WUHU21623XXSP,2013-06-15 15:46:00,
2013-06-15 11:51:00,66.4,44.7,30.11,SW,225,8.7,8.9,46,0.00,,,0.00,WUHU21623XXSP,2013-06-15 15:51:00,
2013-06-15 11:56:00,66.9,43.7,30.11,SW,225,6.0,8.7,43,0.00,,,0.00,WUHU21623XXSP,2013-06-15 15:56:00,
2013-06-15 12:01:00,67.3,43.1,30.11,NW,315,5.6,7.6,42,0.00,,,0.00,WUHU21623XXSP,2013-06-15 16:01:00,
2013-06-15 12:06:00,67.6,42.8,30.11,West,270,7.8,7.8,41,0.00,,,0.00,WUHU21623XXSP,2013-06-15 16:06:00,
2013-06-15 12:11:00,67.8,43.0,30.11,SW,225,5.5,7.8,41,0.00,,,0.00,WUHU21623XXSP,2013-06-15 16:11:00,
2013-06-15 12:16:00,67.8,41.4,30.11,NW,315,6.9,9.2,38,0.00,,,0.00,WUHU21623XXSP,2013-06-15 16:16:00,
2013-06-15 12:22:00,67.8,41.9,30.11,NW,312,6.5,9.6,39,0.00,,,0.00,WUHU21623XXSP,2013-06-15 16:22:00,
2013-06-15 12:27:00,68.0,42.1,30.11,WSW,237,5.5,11.0,39,0.00,,,0.00,WUHU21623XXSP,2013-06-15 16:27:00,
2013-06-15 12:32:00,68.2,41.2,30.11,WSW,239,6.6,11.6,38,0.00,,,0.00,WUHU21623XXSP,2013-06-15 16:32:00,
2013-06-15 12:37:00,68.5,42.6,30.10,West,266,3.8,11.6,39,0.00,,,0.00,WUHU21623XXSP,2013-06-15 16:37:00,
2013-06-15 12:42:00,68.5,40.9,30.10,WSW,252,6.6,10.5,37,0.00,,,0.00,WUHU21623XXSP,2013-06-15 16:42:00,
2013-06-15 12:47:00,68.7,41.1,30.10,SW,228,4.2,10.5,37,0.00,,,0.00,WUHU21623XXSP,2013-06-15 16:47:00,
2013-06-15 12:52:00,68.7,41.1,30.09,NNW,336,5.5,9.8,37,0.00,,,0.00,WUHU21623XXSP,2013-06-15 16:52:00,
2013-06-15 12:57:00,69.1,41.4,30.09,WSW,247,2.5,9.8,37,0.00,,,0.00,WUHU21623XXSP,2013-06-15 16:57:00,
2013-06-15 13:02:00,69.6,41.9,30.09,WSW,240,9.2,12.1,37,0.00,,,0.00,WUHU21623XXSP,2013-06-15 17:02:00,
2013-06-15 13:07:00,69.8,41.5,30.09,SW,225,4.6,12.1,36,0.00,,,0.00,WUHU21623XXSP,2013-06-15 17:07:00,
2013-06-15 13:12:00,70.2,41.2,30.09,SW,235,3.2,6.7,35,0.00,,,0.00,WUHU21623XXSP,2013-06-15 17:12:00,
2013-06-15 13:17:00,70.5,40.9,30.09,NW,315,0.0,8.9,34,0.00,,,0.00,WUHU21623XXSP,2013-06-15 17:17:00,
2013-06-15 13:22:00,70.9,41.2,30.10,NNW,337,9.4,9.4,34,0.00,,,0.00,WUHU21623XXSP,2013-06-15 17:22:00,
2013-06-15 13:27:00,71.2,41.5,30.09,WSW,258,6.8,9.4,34,0.00,,,0.00,WUHU21623XXSP,2013-06-15 17:27:00,
2013-06-15 13:32:00,71.2,41.5,30.09,WSW,239,4.6,8.9,34,0.00,,,0.00,WUHU21623XXSP,2013-06-15 17:32:00,
2013-06-15 13:37:00,71.4,40.5,30.09,West,270,8.5,11.4,33,0.00,,,0.00,WUHU21623XXSP,2013-06-15 17:37:00,
2013-06-15 13:42:00,71.6,40.0,30.09,NW,315,1.6,11.4,32,0.00,,,0.00,WUHU21623XXSP,2013-06-15 17:42:00,
2013-06-15 13:47:00,72.0,41.0,30.09,SSW,213,5.1,10.1,33,0.00,,,0.00,WUHU21623XXSP,2013-06-15 17:47:00,
2013-06-15 13:52:00,72.3,41.9,30.09,WSW,251,5.0,10.1,34,0.00,,,0.00,WUHU21623XXSP,2013-06-15 17:52:00,
2013-06-15 13:57:00,72.7,39.6,30.09,North,0,1.6,7.6,30,0.00,,,0.00,WUHU21623XXSP,2013-06-15 17:57:00,
2013-06-15 14:03:00,73.2,41.4,30.09,NW,315,5.4,6.9,32,0.00,,,0.00,WUHU21623XXSP,2013-06-15 18:03:00,
2013-06-15 14:09:00,73.2,41.4,30.08,NW,315,4.0,9.8,32,0.00,,,0.00,WUHU21623XXSP,2013-06-15 18:09:00,
2013-06-15 14:14:00,72.7,40.3,30.08,WNW,297,4.0,9.8,31,0.00,,,0.00,WUHU21623XXSP,2013-06-15 18:14:00,
2013-06-15 14:19:00,72.7,41.6,30.08,WSW,254,4.8,8.1,33,0.00,,,0.00,WUHU21623XXSP,2013-06-15 18:19:00,
2013-06-15 14:24:00,73.2,42.0,30.08,NW,315,4.7,7.2,33,0.00,,,0.00,WUHU21623XXSP,2013-06-15 18:24:00,
2013-06-15 14:29:00,73.8,42.6,30.08,West,261,3.0,12.8,33,0.00,,,0.00,WUHU21623XXSP,2013-06-15 18:29:00,
2013-06-15 14:34:00,73.9,42.6,30.08,West,270,6.7,12.8,33,0.00,,,0.00,WUHU21623XXSP,2013-06-15 18:34:00,
2013-06-15 14:39:00,74.5,43.2,30.07,WSW,252,4.7,10.1,33,0.00,,,0.00,WUHU21623XXSP,2013-06-15 18:39:00,
2013-06-15 14:44:00,75.0,43.6,30.07,WSW,247,7.4,8.3,33,0.00,,,0.00,WUHU21623XXSP,2013-06-15 18:44:00,
2013-06-15 14:50:00,75.0,41.6,30.07,WSW,247,7.8,13.4,30,0.00,,,0.00,WUHU21623XXSP,2013-06-15 18:50:00,
2013-06-15 14:55:00,74.1,40.9,30.07,SW,225,1.0,13.4,30,0.00,,,0.00,WUHU21623XXSP,2013-06-15 18:55:00,
2013-06-15 15:00:00,73.9,40.7,30.08,WSW,257,5.2,6.0,30,0.00,,,0.00,WUHU21623XXSP,2013-06-15 19:00:00,
2013-06-15 15:05:00,74.1,40.9,30.07,West,281,2.0,9.4,30,0.00,,,0.00,WUHU21623XXSP,2013-06-15 19:05:00,
2013-06-15 15:10:00,74.5,40.5,30.07,NW,315,2.0,10.7,30,0.00,,,0.00,WUHU21623XXSP,2013-06-15 19:10:00,
2013-06-15 15:15:00,74.3,41.0,30.07,NW,322,4.7,13.9,30,0.00,,,0.00,WUHU21623XXSP,2013-06-15 19:15:00,
2013-06-15 15:20:00,74.1,40.9,30.07,WSW,247,6.3,13.9,30,0.00,,,0.00,WUHU21623XXSP,2013-06-15 19:20:00,
2013-06-15 15:25:00,73.4,40.2,30.07,WNW,289,4.6,12.3,30,0.00,,,0.00,WUHU21623XXSP,2013-06-15 19:25:00,
2013-06-15 15:31:00,73.0,40.6,30.07,WNW,296,2.6,12.3,31,0.00,,,0.00,WUHU21623XXSP,2013-06-15 19:31:00,
2013-06-15 15:36:00,72.3,40.0,30.07,West,270,4.0,8.1,31,0.00,,,0.00,WUHU21623XXSP,2013-06-15 19:36:00,
2013-06-15 15:41:00,72.3,40.0,30.07,NNW,337,2.5,8.1,31,0.00,,,0.00,WUHU21623XXSP,2013-06-15 19:41:00,
2013-06-15 15:46:00,72.5,40.8,30.07,West,270,4.9,6.0,32,0.00,,,0.00,WUHU21623XXSP,2013-06-15 19:46:00,
2013-06-15 15:51:00,73.0,40.6,30.07,WSW,247,3.9,9.2,31,0.00,,,0.00,WUHU21623XXSP,2013-06-15 19:51:00,
2013-06-15 15:56:00,73.6,39.7,30.07,WSW,247,8.7,16.1,30,0.00,,,0.00,WUHU21623XXSP,2013-06-15 19:56:00,
2013-06-15 16:01:00,73.6,39.7,30.07,WSW,243,5.9,16.1,30,0.00,,,0.00,WUHU21623XXSP,2013-06-15 20:01:00,
2013-06-15 16:06:00,73.6,40.4,30.07,WSW,247,2.7,12.5,30,0.00,,,0.00,WUHU21623XXSP,2013-06-15 20:06:00,
2013-06-15 16:11:00,74.3,41.7,30.07,WSW,247,3.7,12.5,31,0.00,,,0.00,WUHU21623XXSP,2013-06-15 20:11:00,
2013-06-15 16:16:00,75.4,41.3,30.07,WSW,247,5.3,10.5,30,0.00,,,0.00,WUHU21623XXSP,2013-06-15 20:16:00,
2013-06-15 16:22:00,75.9,41.0,30.07,WSW,247,8.9,10.5,29,0.00,,,0.00,WUHU21623XXSP,2013-06-15 20:22:00,
2013-06-15 16:27:00,76.1,40.5,30.07,WSW,247,4.9,12.3,28,0.00,,,0.00,WUHU21623XXSP,2013-06-15 20:27:00,
2013-06-15 16:32:00,76.1,40.5,30.07,West,270,8.9,8.9,28,0.00,,,0.00,WUHU21623XXSP,2013-06-15 20:32:00,
2013-06-15 16:38:00,76.3,41.4,30.07,WSW,247,2.4,8.9,29,0.00,,,0.00,WUHU21623XXSP,2013-06-15 20:38:00,
2013-06-15 16:43:00,76.5,40.1,30.07,WSW,247,7.4,13.2,27,0.00,,,0.00,WUHU21623XXSP,2013-06-15 20:43:00,
2013-06-15 16:48:00,76.8,39.6,30.07,WSW,247,6.2,13.2,26,0.00,,,0.00,WUHU21623XXSP,2013-06-15 20:48:00,
2013-06-15 16:53:00,77.0,40.5,30.06,WSW,247,4.1,8.3,27,0.00,,,0.00,WUHU21623XXSP,2013-06-15 20:53:00,
2013-06-15 16:58:00,77.2,39.9,30.07,WSW,251,5.1,8.3,26,0.00,,,0.00,WUHU21623XXSP,2013-06-15 20:58:00,
2013-06-15 17:03:00,77.5,39.4,30.07,WSW,247,4.3,9.8,26,0.00,,,0.00,WUHU21623XXSP,2013-06-15 21:03:00,
2013-06-15 17:08:00,77.5,39.4,30.07,WSW,247,6.0,9.8,26,0.00,,,0.00,WUHU21623XXSP,2013-06-15 21:08:00,
2013-06-15 17:13:00,77.5,39.4,30.07,WSW,247,3.8,9.8,26,0.00,,,0.00,WUHU21623XXSP,2013-06-15 21:13:00,
2013-06-15 17:18:00,77.5,39.4,30.06,WSW,247,4.7,9.6,26,0.00,,,0.00,WUHU21623XXSP,2013-06-15 21:18:00,
2013-06-15 17:23:00,77.5,40.2,30.06,WSW,247,3.6,8.1,26,0.00,,,0.00,WUHU21623XXSP,2013-06-15 21:23:00,
2013-06-15 17:28:00,77.7,39.6,30.06,WSW,247,1.8,6.7,26,0.00,,,0.00,WUHU21623XXSP,2013-06-15 21:28:00,
2013-06-15 17:34:00,78.1,40.7,30.06,WSW,247,4.6,6.9,26,0.00,,,0.00,WUHU21623XXSP,2013-06-15 21:34:00,
2013-06-15 17:39:00,77.5,39.4,30.06,WSW,247,7.6,8.1,26,0.00,,,0.00,WUHU21623XXSP,2013-06-15 21:39:00,
2013-06-15 17:44:00,77.0,39.0,30.06,WSW,247,4.7,8.3,26,0.00,,,0.00,WUHU21623XXSP,2013-06-15 21:44:00,
2013-06-15 17:50:00,76.6,39.4,30.06,WSW,247,5.6,8.3,26,0.00,,,0.00,WUHU21623XXSP,2013-06-15 21:50:00,
2013-06-15 17:55:00,76.5,39.3,30.06,WSW,247,0.0,5.6,26,0.00,,,0.00,WUHU21623XXSP,2013-06-15 21:55:00,
2013-06-15 18:01:00,77.2,39.9,30.06,WSW,247,4.7,7.2,26,0.00,,,0.00,WUHU21623XXSP,2013-06-15 22:01:00,
2013-06-15 18:07:00,77.7,40.3,30.06,WSW,247,2.0,7.2,26,0.00,,,0.00,WUHU21623XXSP,2013-06-15 22:07:00,
2013-06-15 18:12:00,77.9,39.7,30.06,WSW,247,5.1,10.3,26,0.00,,,0.00,WUHU21623XXSP,2013-06-15 22:12:00,
2013-06-15 18:17:00,78.1,39.9,30.06,WSW,247,3.5,10.3,26,0.00,,,0.00,WUHU21623XXSP,2013-06-15 22:17:00,
2013-06-15 18:22:00,77.9,40.5,30.06,WSW,247,3.6,4.9,26,0.00,,,0.00,WUHU21623XXSP,2013-06-15 22:22:00,
2013-06-15 18:27:00,77.9,39.7,30.06,WSW,247,0.0,8.1,26,0.00,,,0.00,WUHU21623XXSP,2013-06-15 22:27:00,
2013-06-15 18:32:00,77.9,40.5,30.06,WSW,247,3.4,8.1,26,0.00,,,0.00,WUHU21623XXSP,2013-06-15 22:32:00,
2013-06-15 18:37:00,77.9,39.7,30.06,WSW,247,4.5,8.1,26,0.00,,,0.00,WUHU21623XXSP,2013-06-15 22:37:00,
2013-06-15 18:42:00,77.9,39.7,30.06,WSW,247,4.0,7.8,26,0.00,,,0.00,WUHU21623XXSP,2013-06-15 22:42:00,
2013-06-15 18:47:00,77.5,39.4,30.06,WSW,247,3.8,7.8,26,0.00,,,0.00,WUHU21623XXSP,2013-06-15 22:47:00,
2013-06-15 18:53:00,77.2,39.1,30.06,WSW,247,3.0,7.8,26,0.00,,,0.00,WUHU21623XXSP,2013-06-15 22:53:00,
2013-06-15 18:58:00,76.8,39.6,30.06,WSW,247,6.7,6.7,26,0.00,,,0.00,WUHU21623XXSP,2013-06-15 22:58:00,
2013-06-15 19:03:00,76.6,39.4,30.06,SW,227,3.5,6.7,26,0.00,,,0.00,WUHU21623XXSP,2013-06-15 23:03:00,
2013-06-15 19:08:00,75.6,39.3,30.07,WSW,256,3.4,6.9,27,0.00,,,0.00,WUHU21623XXSP,2013-06-15 23:08:00,
2013-06-15 19:13:00,73.9,38.6,30.07,WSW,257,4.3,6.9,28,0.00,,,0.00,WUHU21623XXSP,2013-06-15 23:13:00,
2013-06-15 19:18:00,72.1,37.7,30.07,WSW,249,2.8,4.9,29,0.00,,,0.00,WUHU21623XXSP,2013-06-15 23:18:00,
2013-06-15 19:23:00,70.9,37.4,30.07,SW,225,0.0,5.8,30,0.00,,,0.00,WUHU21623XXSP,2013-06-15 23:23:00,
2013-06-15 19:28:00,70.0,37.9,30.07,West,270,0.0,5.8,31,0.00,,,0.00,WUHU21623XXSP,2013-06-15 23:28:00,
2013-06-15 19:33:00,69.1,37.8,30.07,WSW,247,0.0,0.0,32,0.00,,,0.00,WUHU21623XXSP,2013-06-15 23:33:00,
2013-06-15 19:38:00,68.4,37.8,30.07,WSW,247,0.0,0.0,33,0.00,,,0.00,WUHU21623XXSP,2013-06-15 23:38:00,
2013-06-15 19:43:00,67.8,37.3,30.07,West,270,0.0,0.0,33,0.00,,,0.00,WUHU21623XXSP,2013-06-15 23:43:00,
2013-06-15 19:48:00,67.1,37.3,30.06,West,270,0.0,0.0,34,0.00,,,0.00,WUHU21623XXSP,2013-06-15 23:48:00,
2013-06-15 19:53:00,66.7,36.9,30.06,West,270,0.0,0.0,34,0.00,,,0.00,WUHU21623XXSP,2013-06-15 23:53:00,
2013-06-15 19:59:00,66.6,36.8,30.07,West,270,0.0,0.0,34,0.00,,,0.00,WUHU21623XXSP,2013-06-15 23:59:00,
2013-06-15 20:04:00,66.6,37.5,30.06,West,270,0.0,0.0,34,0.00,,,0.00,WUHU21623XXSP,2013-06-16 00:04:00,
2013-06-15 20:09:00,66.4,37.3,30.06,West,270,0.0,0.0,34,0.00,,,0.00,WUHU21623XXSP,2013-06-16 00:09:00,
2013-06-15 20:14:00,66.2,37.1,30.06,West,270,0.0,0.0,34,0.00,,,0.00,WUHU21623XXSP,2013-06-16 00:14:00,
2013-06-15 20:19:00,66.0,36.9,30.06,West,270,0.0,0.0,34,0.00,,,0.00,WUHU21623XXSP,2013-06-16 00:19:00,
2013-06-15 20:25:00,65.1,36.7,30.06,West,270,0.0,0.0,35,0.00,,,0.00,WUHU21623XXSP,2013-06-16 00:25:00,
2013-06-15 20:30:00,64.8,38.1,30.06,West,270,0.0,0.0,38,0.00,,,0.00,WUHU21623XXSP,2013-06-16 00:30:00,
2013-06-15 20:35:00,64.2,38.7,30.06,West,270,0.0,0.0,39,0.00,,,0.00,WUHU21623XXSP,2013-06-16 00:35:00,
2013-06-15 20:41:00,63.3,38.4,30.06,West,270,0.0,0.0,40,0.00,,,0.00,WUHU21623XXSP,2013-06-16 00:41:00,
2013-06-15 20:47:00,62.4,37.1,30.05,West,270,0.0,0.0,39,0.00,,,0.00,WUHU21623XXSP,2013-06-16 00:47:00,
2013-06-15 20:52:00,61.7,36.4,30.05,West,270,0.0,0.0,39,0.00,,,0.00,WUHU21623XXSP,2013-06-16 00:52:00,
2013-06-15 20:57:00,61.3,36.6,30.05,West,270,0.0,0.0,40,0.00,,,0.00,WUHU21623XXSP,2013-06-16 00:57:00,
2013-06-15 21:02:00,61.0,36.3,30.05,West,270,0.0,0.0,40,0.00,,,0.00,WUHU21623XXSP,2013-06-16 01:02:00,
2013-06-15 21:07:00,60.6,36.0,30.05,West,270,0.0,0.0,40,0.00,,,0.00,WUHU21623XXSP,2013-06-16 01:07:00,
2013-06-15 21:12:00,60.4,36.3,30.05,West,270,0.0,0.0,41,0.00,,,0.00,WUHU21623XXSP,2013-06-16 01:12:00,
2013-06-15 21:17:00,60.1,36.5,30.05,West,270,0.0,0.0,42,0.00,,,0.00,WUHU21623XXSP,2013-06-16 01:17:00,
2013-06-15 21:22:00,59.7,36.2,30.04,West,270,0.0,0.0,42,0.00,,,0.00,WUHU21623XXSP,2013-06-16 01:22:00,
2013-06-15 21:27:00,59.4,35.9,30.05,West,270,0.0,0.0,42,0.00,,,0.00,WUHU21623XXSP,2013-06-16 01:27:00,
2013-06-15 21:33:00,59.2,35.7,30.05,West,270,0.0,0.0,42,0.00,,,0.00,WUHU21623XXSP,2013-06-16 01:33:00,
2013-06-15 21:38:00,58.8,35.9,30.05,West,270,0.0,0.0,42,0.00,,,0.00,WUHU21623XXSP,2013-06-16 01:38:00,
2013-06-15 21:43:00,58.8,35.9,30.05,West,270,0.0,0.0,42,0.00,,,0.00,WUHU21623XXSP,2013-06-16 01:43:00,
2013-06-15 21:48:00,58.8,36.4,30.05,West,270,0.0,0.0,43,0.00,,,0.00,WUHU21623XXSP,2013-06-16 01:48:00,
2013-06-15 21:53:00,58.8,36.4,30.05,West,270,0.0,0.0,43,0.00,,,0.00,WUHU21623XXSP,2013-06-16 01:53:00,
2013-06-15 21:58:00,58.6,36.2,30.05,West,270,0.0,0.0,43,0.00,,,0.00,WUHU21623XXSP,2013-06-16 01:58:00,
2013-06-15 22:04:00,58.8,35.9,30.05,West,270,0.0,0.0,42,0.00,,,0.00,WUHU21623XXSP,2013-06-16 02:04:00,
2013-06-15 22:09:00,58.8,36.4,30.05,West,270,0.0,0.0,43,0.00,,,0.00,WUHU21623XXSP,2013-06-16 02:09:00,
2013-06-15 22:14:00,58.8,35.9,30.05,West,270,0.0,0.0,42,0.00,,,0.00,WUHU21623XXSP,2013-06-16 02:14:00,
2013-06-15 22:19:00,59.4,36.4,30.05,West,270,0.0,0.0,42,0.00,,,0.00,WUHU21623XXSP,2013-06-16 02:19:00,
2013-06-15 22:24:00,59.7,36.2,30.05,West,270,0.0,0.0,42,0.00,,,0.00,WUHU21623XXSP,2013-06-16 02:24:00,
2013-06-15 22:31:00,60.1,36.0,30.04,West,270,0.0,0.0,41,0.00,,,0.00,WUHU21623XXSP,2013-06-16 02:31:00,
2013-06-15 22:37:00,60.4,36.3,30.04,West,270,0.0,0.0,41,0.00,,,0.00,WUHU21623XXSP,2013-06-16 02:37:00,
2013-06-15 22:42:00,60.4,36.3,30.05,West,270,0.0,0.0,41,0.00,,,0.00,WUHU21623XXSP,2013-06-16 02:42:00,
2013-06-15 22:47:00,60.4,35.8,30.05,West,270,0.0,0.0,40,0.00,,,0.00,WUHU21623XXSP,2013-06-16 02:47:00,
2013-06-15 22:53:00,60.6,35.5,30.04,West,270,0.0,0.0,39,0.00,,,0.00,WUHU21623XXSP,2013-06-16 02:53:00,
2013-06-15 22:59:00,60.6,35.5,30.05,West,270,0.0,0.0,39,0.00,,,0.00,WUHU21623XXSP,2013-06-16 02:59:00,
2013-06-15 23:04:00,60.6,35.5,30.05,West,270,0.0,0.0,39,0.00,,,0.00,WUHU21623XXSP,2013-06-16 03:04:00,
2013-06-15 23:09:00,60.4,35.3,30.06,West,270,0.0,0.0,39,0.00,,,0.00,WUHU21623XXSP,2013-06-16 03:09:00,
2013-06-15 23:14:00,60.4,35.8,30.06,West,270,0.0,0.0,40,0.00,,,0.00,WUHU21623XXSP,2013-06-16 03:14:00,
2013-06-15 23:19:00,60.4,35.8,30.06,West,270,0.0,0.0,40,0.00,,,0.00,WUHU21623XXSP,2013-06-16 03:19:00,
2013-06-15 23:24:00,60.3,36.2,30.07,West,270,0.0,0.0,41,0.00,,,0.00,WUHU21623XXSP,2013-06-16 03:24:00,
2013-06-15 23:29:00,60.1,36.0,30.07,West,270,0.0,0.0,41,0.00,,,0.00,WUHU21623XXSP,2013-06-16 03:29:00,
2013-06-15 23:34:00,60.1,36.0,30.07,West,270,0.0,0.0,41,0.00,,,0.00,WUHU21623XXSP,2013-06-16 03:34:00,
2013-06-15 23:40:00,60.3,36.2,30.07,West,270,0.0,0.0,41,0.00,,,0.00,WUHU21623XXSP,2013-06-16 03:40:00,
2013-06-15 23:45:00,60.4,36.3,30.06,West,270,0.0,0.0,41,0.00,,,0.00,WUHU21623XXSP,2013-06-16 03:45:00,
2013-06-15 23:50:00,60.4,36.3,30.07,West,270,0.0,0.0,41,0.00,,,0.00,WUHU21623XXSP,2013-06-16 03:50:00,
2013-06-15 23:55:00,60.4,36.8,30.07,West,270,0.0,0.0,42,0.00,,,0.00,WUHU21623XXSP,2013-06-16 03:55:00,